Longford, Kansas
Current Conditions -  °F | °C
As of 7:53 PM on Saturday 25 Oct 2014 (Local Time) from KSLN Reporting Station
Clear Clear  
Wind Chill: 70°   Ceiling: Unl
Heat Index: 70°   Visibility: 10mi
Dew Point: 57°   Wind: 6mph
Humidity: 63%   Direction: 150°SSE
Pressure: 29.95"   Gusts: NA
Location:  39.17°N, 97.33°W
Report Text: KSLN 260053Z 15005KT 10SM CLR 21/14 A2995 RMK AO2 SLP135 T02110139
Loading
Personal Weather Stations






























Interactive Weather Map New forecast layout! Learn more

10-Day Weather Forecast

Advertisements
Track Severe Weather on mobile